Time;durP1;ratioP1;P1;durP2;ratioP2;P2;SDS_P1;SDS_P2;PMS_P1;PMS_P2;Temp;Humidity;BMP_temperature;BMP_pressure;BME280_temperature;BME280_humidity;BME280_pressure;Samples;Min_cycle;Max_cycle;Signal;HPM_P1;HPM_P2
2021/08/23 00:01:22;;;;;;;17.40;14.65;;;16.40;99.90;;;;;;5975856;23;20024;-75
2021/08/23 00:03:48;;;;;;;16.70;14.88;;;16.40;99.90;;;;;;5975000;23;20327;-76
2021/08/23 00:06:17;;;;;;;18.80;15.68;;;16.30;99.90;;;;;;5977286;23;20477;-77
2021/08/23 00:08:48;;;;;;;18.13;14.70;;;16.30;99.90;;;;;;5998854;23;20075;-76
2021/08/23 00:11:16;;;;;;;19.63;14.70;;;16.30;99.90;;;;;;5952549;23;20031;-76
2021/08/23 00:13:43;;;;;;;15.77;14.07;;;16.30;99.90;;;;;;5954748;23;20449;-76
2021/08/23 00:16:10;;;;;;;16.85;13.95;;;16.30;99.90;;;;;;6026443;23;20019;-75
2021/08/23 00:18:36;;;;;;;17.45;13.00;;;16.30;99.90;;;;;;6051560;23;20053;-76
2021/08/23 00:21:02;;;;;;;18.58;13.43;;;16.30;99.90;;;;;;6005716;23;20019;-76
2021/08/23 00:23:35;;;;;;;16.33;12.57;;;16.30;99.90;;;;;;6051320;23;20326;-76
2021/08/23 00:26:02;;;;;;;15.98;13.00;;;16.30;99.90;;;;;;6029637;23;20039;-76
2021/08/23 00:28:31;;;;;;;16.77;12.80;;;16.30;99.90;;;;;;6050878;23;20019;-77
2021/08/23 00:30:57;;;;;;;16.73;12.68;;;16.30;99.90;;;;;;6029568;23;20261;-75
2021/08/23 00:33:23;;;;;;;16.58;11.70;;;16.30;99.90;;;;;;6029605;23;20026;-77
2021/08/23 00:35:49;;;;;;;16.23;12.30;;;16.30;99.90;;;;;;6051042;23;20029;-77
2021/08/23 00:38:15;;;;;;;19.85;13.32;;;16.20;99.90;;;;;;6054398;23;20023;-76
2021/08/23 00:40:41;;;;;;;19.25;13.05;;;16.30;99.90;;;;;;6055428;23;20024;-76
2021/08/23 00:43:07;;;;;;;20.38;12.45;;;16.30;99.90;;;;;;6031410;23;20019;-77
2021/08/23 00:45:33;;;;;;;17.35;12.02;;;16.20;99.90;;;;;;6031399;23;20019;-77
2021/08/23 00:47:59;;;;;;;15.93;13.70;;;16.30;99.90;;;;;;6032463;23;20019;-77
2021/08/23 00:50:28;;;;;;;20.17;13.52;;;16.30;99.90;;;;;;6031200;23;20034;-76
2021/08/23 00:52:58;;;;;;;18.85;12.38;;;16.30;99.90;;;;;;6030439;23;20026;-76
2021/08/23 00:55:24;;;;;;;17.75;12.45;;;16.30;99.90;;;;;;6028719;23;20019;-77
2021/08/23 00:57:50;;;;;;;17.02;13.20;;;16.30;99.90;;;;;;6006980;23;20019;-77
2021/08/23 01:00:16;;;;;;;21.40;14.43;;;16.30;99.90;;;;;;6058202;23;20467;-78
2021/08/23 01:02:49;;;;;;;18.23;14.35;;;16.30;99.90;;;;;;6029936;23;20019;-76
2021/08/23 01:05:20;;;;;;;17.58;14.15;;;16.30;99.90;;;;;;6034150;23;20019;-77
2021/08/23 01:07:53;;;;;;;19.55;14.10;;;16.30;99.90;;;;;;6031094;23;20616;-76
2021/08/23 01:10:31;;;;;;;19.95;13.65;;;16.30;99.90;;;;;;6032538;23;20071;-72
2021/08/23 01:13:01;;;;;;;18.02;13.98;;;16.30;99.90;;;;;;6055300;23;20018;-72
2021/08/23 01:15:28;;;;;;;18.05;13.02;;;16.30;99.90;;;;;;6056517;23;20019;-72
2021/08/23 01:17:55;;;;;;;17.50;14.02;;;16.30;99.90;;;;;;5981644;23;20039;-72
2021/08/23 01:20:20;;;;;;;22.73;14.02;;;16.30;99.90;;;;;;6031775;23;20023;-76
2021/08/23 01:22:51;;;;;;;17.92;12.95;;;16.30;99.90;;;;;;6029361;23;20016;-76
2021/08/23 01:25:21;;;;;;;;;;;16.30;99.90;;;;;;6032048;23;20102;-75
2021/08/23 01:28:24;;;;;;;17.60;13.50;;;16.30;99.90;;;;;;6005447;23;19925;-75
2021/08/23 01:31:12;;;;;;;23.38;14.23;;;16.30;99.90;;;;;;6031971;23;20019;-76
2021/08/23 01:33:38;;;;;;;17.30;13.13;;;16.30;99.90;;;;;;6029666;23;20023;-75
2021/08/23 01:36:05;;;;;;;20.80;13.10;;;16.40;99.90;;;;;;6037245;23;20550;-71
2021/08/23 01:38:31;;;;;;;20.27;13.23;;;16.40;99.90;;;;;;6004619;23;20050;-73
2021/08/23 01:41:10;;;;;;;18.65;13.45;;;16.40;99.90;;;;;;6031094;23;20071;-74
2021/08/23 01:43:39;;;;;;;17.13;11.70;;;16.30;99.90;;;;;;6053988;23;20023;-73
2021/08/23 01:46:05;;;;;;;20.73;14.03;;;16.30;99.90;;;;;;6033537;23;20034;-71
2021/08/23 01:48:34;;;;;;;19.95;13.05;;;16.30;99.90;;;;;;6026353;23;20774;-70
2021/08/23 01:51:01;;;;;;;15.20;11.68;;;16.40;99.90;;;;;;6052035;23;20011;-71
2021/08/23 01:53:26;;;;;;;17.75;11.55;;;16.40;99.90;;;;;;6049796;23;20019;-71
2021/08/23 01:55:53;;;;;;;16.40;10.70;;;16.40;99.90;;;;;;6002739;23;20034;-76
2021/08/23 01:58:19;;;;;;;13.85;10.82;;;16.40;99.90;;;;;;6029647;23;20019;-76
2021/08/23 02:00:45;;;;;;;13.82;10.48;;;16.40;99.90;;;;;;6027092;23;20223;-77
2021/08/23 02:03:11;;;;;;;14.00;10.57;;;16.40;99.90;;;;;;6032716;23;20090;-76
2021/08/23 02:05:37;;;;;;;13.65;9.32;;;16.40;99.90;;;;;;6048087;23;20023;-76
2021/08/23 02:08:03;;;;;;;14.43;10.60;;;16.40;99.90;;;;;;6054433;23;20026;-76
2021/08/23 02:10:31;;;;;;;19.35;10.43;;;16.30;99.90;;;;;;6028221;23;20079;-75
2021/08/23 02:12:57;;;;;;;16.70;10.18;;;16.30;99.90;;;;;;6049630;23;20042;-76
2021/08/23 02:15:24;;;;;;;15.85;9.77;;;16.40;99.90;;;;;;6025960;23;20606;-76
2021/08/23 02:17:50;;;;;;;13.27;10.02;;;16.40;99.90;;;;;;5999967;23;20094;-71
2021/08/23 02:20:16;;;;;;;15.25;9.32;;;16.30;99.90;;;;;;6027025;23;20066;-71
2021/08/23 02:22:47;;;;;;;14.65;9.57;;;16.40;99.90;;;;;;6024181;23;20019;-71
2021/08/23 02:25:14;;;;;;;17.35;9.73;;;16.40;99.90;;;;;;6001210;23;20074;-71
2021/08/23 02:27:40;;;;;;;13.43;10.65;;;16.40;99.90;;;;;;5999587;23;20035;-71
2021/08/23 02:30:09;;;;;;;15.75;10.30;;;16.30;99.90;;;;;;6026468;23;20027;-71
2021/08/23 02:32:36;;;;;;;13.88;9.75;;;16.40;99.90;;;;;;5972514;23;20030;-71
2021/08/23 02:35:05;;;;;;;14.18;9.70;;;16.40;99.90;;;;;;5989613;23;20087;-71
2021/08/23 02:37:31;;;;;;;13.55;9.43;;;16.30;99.90;;;;;;5967660;24;20470;-71
2021/08/23 02:39:57;;;;;;;13.77;9.02;;;16.30;99.90;;;;;;5943892;24;20065;-76
2021/08/23 02:42:23;;;;;;;13.95;9.13;;;16.30;99.90;;;;;;5945773;24;20020;-77
2021/08/23 02:44:49;;;;;;;13.25;9.05;;;16.30;99.90;;;;;;5989925;23;20041;-77
2021/08/23 02:47:15;;;;;;;15.60;8.82;;;16.30;99.90;;;;;;5992500;23;20036;-77
2021/08/23 02:49:41;;;;;;;11.40;8.13;;;16.20;99.90;;;;;;5945187;24;20994;-76
2021/08/23 02:52:07;;;;;;;12.90;8.73;;;16.20;99.90;;;;;;5941917;24;20028;-76
2021/08/23 02:54:33;;;;;;;9.88;7.97;;;16.20;99.90;;;;;;5943368;24;20032;-77
2021/08/23 02:57:02;;;;;;;11.98;7.90;;;16.30;99.90;;;;;;5966884;24;20076;-71
2021/08/23 02:59:28;;;;;;;12.88;7.97;;;16.20;99.90;;;;;;5990284;23;20032;-71
2021/08/23 03:01:53;;;;;;;11.50;8.65;;;16.20;99.90;;;;;;5989064;23;20028;-71
2021/08/23 03:04:19;;;;;;;11.85;8.27;;;16.20;99.90;;;;;;5967094;24;20127;-71
2021/08/23 03:06:45;;;;;;;12.40;7.75;;;16.20;99.90;;;;;;5994192;23;20090;-71
2021/08/23 03:09:11;;;;;;;12.93;8.40;;;16.20;99.90;;;;;;5998152;23;20015;-72
2021/08/23 03:11:37;;;;;;;11.60;7.35;;;16.10;99.90;;;;;;6024228;23;20025;-72
2021/08/23 03:14:03;;;;;;;11.15;7.65;;;16.10;99.90;;;;;;6026468;23;20023;-72
2021/08/23 03:16:30;;;;;;;13.25;7.80;;;16.10;99.90;;;;;;6027379;23;20130;-72
2021/08/23 03:18:56;;;;;;;11.38;7.97;;;16.10;99.90;;;;;;6023385;23;20020;-72
2021/08/23 03:21:21;;;;;;;12.88;8.10;;;16.10;99.90;;;;;;6021112;23;20349;-72
2021/08/23 03:23:47;;;;;;;13.77;8.02;;;16.10;99.90;;;;;;6024289;23;20106;-72
2021/08/23 03:26:13;;;;;;;12.23;7.57;;;16.10;99.90;;;;;;6024398;23;20084;-71
2021/08/23 03:28:39;;;;;;;9.25;7.30;;;16.10;99.90;;;;;;6025756;23;20019;-72
2021/08/23 03:31:09;;;;;;;11.88;7.10;;;16.10;99.90;;;;;;6023369;23;20357;-72
2021/08/23 03:33:35;;;;;;;10.55;6.80;;;16.10;99.90;;;;;;6024227;23;20106;-72
2021/08/23 03:36:01;;;;;;;11.85;6.97;;;16.00;99.90;;;;;;6000148;23;20580;-72
2021/08/23 03:38:27;;;;;;;12.55;6.97;;;16.10;99.90;;;;;;6027489;23;20023;-72
2021/08/23 03:41:02;;;;;;;10.98;7.18;;;16.10;99.90;;;;;;6023237;23;20099;-72
2021/08/23 03:43:28;;;;;;;11.52;6.95;;;16.10;99.90;;;;;;6023527;23;20027;-72
2021/08/23 03:45:56;;;;;;;10.52;5.95;;;16.10;99.90;;;;;;6025945;23;20698;-72
2021/08/23 03:48:22;;;;;;;13.40;7.18;;;16.00;99.90;;;;;;6001184;23;20639;-73
2021/08/23 03:50:48;;;;;;;12.18;6.65;;;16.10;99.90;;;;;;6001119;23;20023;-77
2021/08/23 03:53:14;;;;;;;11.10;7.10;;;16.00;99.90;;;;;;6001918;23;20023;-77
2021/08/23 03:55:40;;;;;;;12.73;7.07;;;16.10;99.90;;;;;;6000005;23;20122;-77
2021/08/23 03:58:06;;;;;;;15.65;8.02;;;16.00;99.90;;;;;;6003727;23;20448;-76
2021/08/23 04:00:34;;;;;;;16.35;8.27;;;16.10;99.90;;;;;;5976379;23;20078;-77
2021/08/23 04:03:00;;;;;;;14.57;7.68;;;16.10;99.90;;;;;;6024091;23;20024;-76
2021/08/23 04:05:29;;;;;;;14.38;8.15;;;16.00;99.90;;;;;;6026100;23;20830;-76
2021/08/23 04:07:55;;;;;;;11.30;7.88;;;16.00;99.90;;;;;;6027935;23;20023;-76
2021/08/23 04:10:21;;;;;;;11.55;7.95;;;16.00;99.90;;;;;;5979693;23;20027;-77
2021/08/23 04:12:47;;;;;;;10.85;7.32;;;16.00;99.90;;;;;;6026985;23;20038;-77
2021/08/23 04:15:16;;;;;;;12.13;8.00;;;15.90;99.90;;;;;;5983958;23;20449;-77
2021/08/23 04:17:42;;;;;;;10.32;7.00;;;15.90;99.90;;;;;;6030465;23;20030;-77
2021/08/23 04:20:09;;;;;;;14.63;8.48;;;15.90;99.90;;;;;;6031469;23;20416;-76
2021/08/23 04:22:35;;;;;;;14.52;8.18;;;15.90;99.90;;;;;;6027036;23;20480;-77
2021/08/23 04:25:00;;;;;;;11.98;7.72;;;15.80;99.90;;;;;;6030560;23;20077;-77
2021/08/23 04:27:27;;;;;;;14.82;8.40;;;15.80;99.90;;;;;;6030916;23;20273;-76
2021/08/23 04:29:53;;;;;;;12.10;7.95;;;15.80;99.90;;;;;;5981442;23;20027;-78
2021/08/23 04:32:21;;;;;;;12.25;7.43;;;15.70;99.90;;;;;;6027920;23;20026;-77
2021/08/23 04:34:47;;;;;;;11.48;7.68;;;15.70;99.90;;;;;;5981539;23;20079;-77
2021/08/23 04:37:13;;;;;;;12.68;7.60;;;15.70;99.90;;;;;;6005926;23;20027;-77
2021/08/23 04:39:39;;;;;;;10.40;7.72;;;15.70;99.90;;;;;;6005581;23;20019;-72
2021/08/23 04:42:09;;;;;;;15.25;8.00;;;15.70;99.90;;;;;;6029094;23;20019;-72
2021/08/23 04:44:36;;;;;;;12.45;7.10;;;15.70;99.90;;;;;;6032175;23;20023;-73
2021/08/23 04:47:05;;;;;;;14.15;8.55;;;15.70;99.90;;;;;;5981908;23;20019;-73
2021/08/23 04:49:32;;;;;;;13.13;8.07;;;15.70;99.90;;;;;;6001946;23;20330;-72
2021/08/23 04:51:57;;;;;;;8.20;6.40;;;15.70;99.90;;;;;;6001778;23;20052;-72
2021/08/23 04:54:23;;;;;;;14.02;8.45;;;15.70;99.90;;;;;;6006355;23;20079;-72
2021/08/23 04:56:49;;;;;;;11.02;6.93;;;15.70;99.90;;;;;;6025291;23;20471;-72
2021/08/23 04:59:16;;;;;;;18.95;8.82;;;15.70;99.90;;;;;;6004807;23;20020;-73
2021/08/23 05:01:42;;;;;;;15.35;8.05;;;15.60;99.90;;;;;;5979801;23;20407;-72
2021/08/23 05:04:07;;;;;;;11.45;7.35;;;15.70;99.90;;;;;;6027222;23;20135;-72
2021/08/23 05:06:33;;;;;;;12.70;8.18;;;15.60;99.90;;;;;;6029344;23;20063;-72
2021/08/23 05:08:59;;;;;;;13.90;6.88;;;15.60;99.90;;;;;;6002805;23;20039;-72
2021/08/23 05:11:25;;;;;;;11.90;7.22;;;15.60;99.90;;;;;;6027939;23;20847;-71
2021/08/23 05:13:51;;;;;;;11.93;7.78;;;15.60;99.90;;;;;;6005301;23;20045;-71
2021/08/23 05:16:17;;;;;;;11.93;8.18;;;15.60;99.90;;;;;;6008534;23;20381;-71
2021/08/23 05:18:44;;;;;;;15.20;8.27;;;15.60;99.90;;;;;;6003194;23;20015;-71
2021/08/23 05:21:09;;;;;;;15.20;7.72;;;15.60;99.90;;;;;;6002575;23;20023;-72
2021/08/23 05:23:35;;;;;;;16.08;8.45;;;15.60;99.90;;;;;;6004202;23;20023;-71
2021/08/23 05:26:09;;;;;;;12.77;7.18;;;15.60;99.90;;;;;;6029769;23;20352;-72
2021/08/23 05:28:34;;;;;;;17.10;8.18;;;15.60;99.90;;;;;;6003508;23;20522;-76
2021/08/23 05:31:00;;;;;;;19.13;7.53;;;15.60;99.90;;;;;;5980642;23;20090;-75
2021/08/23 05:33:26;;;;;;;13.93;7.22;;;15.60;99.90;;;;;;6005068;23;20031;-76
2021/08/23 05:35:52;;;;;;;13.93;7.40;;;15.70;99.90;;;;;;6029126;23;20362;-76
2021/08/23 05:38:18;;;;;;;12.10;7.20;;;15.70;99.90;;;;;;6002794;23;20027;-76
2021/08/23 05:40:44;;;;;;;11.20;6.57;;;15.80;99.90;;;;;;6028915;23;20356;-76
2021/08/23 05:43:10;;;;;;;12.25;6.47;;;15.80;99.90;;;;;;5980633;23;20023;-76
2021/08/23 05:45:43;;;;;;;11.15;5.90;;;15.80;99.90;;;;;;6004287;23;20532;-76
2021/08/23 05:48:09;;;;;;;11.13;6.88;;;15.80;99.90;;;;;;6007200;23;20027;-76
2021/08/23 05:50:35;;;;;;;11.95;6.50;;;15.80;99.90;;;;;;5980261;23;20033;-76
2021/08/23 05:53:04;;;;;;;10.63;6.65;;;15.90;99.90;;;;;;6006663;23;20023;-76
2021/08/23 05:55:30;;;;;;;10.00;5.80;;;15.90;99.90;;;;;;6004616;23;20041;-77
2021/08/23 05:57:56;;;;;;;9.73;5.95;;;15.90;99.90;;;;;;5980576;23;20015;-76
2021/08/23 06:00:22;;;;;;;11.65;5.90;;;16.00;99.90;;;;;;6024401;23;20034;-75
2021/08/23 06:02:48;;;;;;;10.75;6.00;;;16.00;99.90;;;;;;6002214;23;20094;-77
2021/08/23 06:05:14;;;;;;;11.20;5.35;;;16.00;99.90;;;;;;6027228;23;20516;-77
2021/08/23 06:07:40;;;;;;;9.85;4.82;;;16.10;99.90;;;;;;6006378;23;20023;-77
2021/08/23 06:10:13;;;;;;;9.70;6.00;;;16.10;99.90;;;;;;6030186;23;20469;-77
2021/08/23 06:12:41;;;;;;;11.48;5.60;;;16.20;99.90;;;;;;6005423;23;20508;-76
2021/08/23 06:15:08;;;;;;;10.68;5.05;;;16.20;99.90;;;;;;6032640;23;20027;-76
2021/08/23 06:17:34;;;;;;;9.75;5.45;;;16.30;99.90;;;;;;6027688;23;20425;-77
2021/08/23 06:20:00;;;;;;;9.80;4.65;;;16.40;99.90;;;;;;6030260;23;20023;-76
2021/08/23 06:22:26;;;;;;;12.45;5.93;;;16.40;99.90;;;;;;6005994;23;20616;-77
2021/08/23 06:24:53;;;;;;;11.88;5.10;;;16.50;99.90;;;;;;6029381;23;20054;-77
2021/08/23 06:27:19;;;;;;;10.27;4.85;;;16.60;99.90;;;;;;6007504;23;20067;-77
2021/08/23 06:29:46;;;;;;;11.57;4.93;;;16.60;99.90;;;;;;6029849;23;20023;-78
2021/08/23 06:32:11;;;;;;;9.43;4.45;;;16.60;99.90;;;;;;6031820;23;20019;-78
2021/08/23 06:34:37;;;;;;;11.95;4.40;;;16.70;99.90;;;;;;6027743;23;20464;-77
2021/08/23 06:37:04;;;;;;;11.35;4.55;;;16.80;99.90;;;;;;6030161;23;20453;-78
2021/08/23 06:39:30;;;;;;;10.23;4.38;;;16.80;99.90;;;;;;6007106;23;20042;-77
2021/08/23 06:41:56;;;;;;;13.57;4.90;;;16.90;99.90;;;;;;6005825;23;20038;-77
2021/08/23 06:44:22;;;;;;;7.22;4.28;;;16.90;99.90;;;;;;6028331;23;20015;-77
2021/08/23 06:46:48;;;;;;;10.75;4.35;;;17.00;99.90;;;;;;6025610;23;20033;-78
2021/08/23 06:49:14;;;;;;;13.15;4.28;;;17.00;99.90;;;;;;6027815;23;20101;-78
2021/08/23 06:51:40;;;;;;;10.77;4.50;;;17.10;99.90;;;;;;5978571;23;20249;-78
2021/08/23 06:54:16;;;;;;;8.45;3.70;;;17.20;99.90;;;;;;6001712;23;20385;-77
2021/08/23 06:56:42;;;;;;;7.78;4.28;;;17.20;99.90;;;;;;6004897;23;20333;-77
2021/08/23 06:59:10;;;;;;;8.73;4.15;;;17.20;99.90;;;;;;6031897;23;20019;-77
2021/08/23 07:01:41;;;;;;;13.57;4.70;;;17.30;99.90;;;;;;6004376;23;20062;-77
2021/08/23 07:04:08;;;;;;;9.80;4.00;;;17.30;99.90;;;;;;5986673;23;20023;-78
2021/08/23 07:06:35;;;;;;;11.00;4.50;;;17.30;99.90;;;;;;6029211;23;20069;-77
2021/08/23 07:09:01;;;;;;;10.93;4.05;;;17.30;99.90;;;;;;6004083;23;20015;-77
2021/08/23 07:11:31;;;;;;;8.88;4.07;;;17.30;99.90;;;;;;5979291;23;20019;-77
2021/08/23 07:13:57;;;;;;;;;;;17.30;99.90;;;;;;6029913;23;20593;-78
2021/08/23 07:16:26;;;;;;;8.88;3.80;;;17.30;99.90;;;;;;5984991;23;19918;-78
2021/08/23 07:18:52;;;;;;;11.20;3.83;;;17.30;99.90;;;;;;6026304;23;20087;-71
2021/08/23 07:21:19;;;;;;;8.55;3.80;;;17.30;99.90;;;;;;6033041;23;20091;-71
2021/08/23 07:23:44;;;;;;;9.25;3.63;;;17.40;99.90;;;;;;6027014;23;20714;-71
2021/08/23 07:26:30;;;;;;;8.93;3.33;;;17.50;99.90;;;;;;6007008;23;20153;-73
2021/08/23 07:28:56;;;;;;;7.82;3.97;;;17.50;99.90;;;;;;5976091;23;20043;-73
2021/08/23 07:31:22;;;;;;;8.38;3.75;;;17.60;99.90;;;;;;5999555;23;20445;-73
2021/08/23 07:33:48;;;;;;;7.53;3.47;;;17.70;99.90;;;;;;6019658;23;20027;-78
2021/08/23 07:36:14;;;;;;;8.70;3.05;;;17.80;99.90;;;;;;6024933;23;20082;-78
2021/08/23 07:38:47;;;;;;;6.88;2.83;;;17.90;99.90;;;;;;6003158;23;20495;-78
2021/08/23 07:41:12;;;;;;;5.85;2.45;;;18.10;99.90;;;;;;6030312;23;20054;-78
2021/08/23 07:43:42;;;;;;;5.45;2.10;;;18.30;99.90;;;;;;6003145;23;20019;-80
2021/08/23 07:46:09;;;;;;;6.13;2.45;;;18.50;99.90;;;;;;6001841;23;20509;-79
2021/08/23 07:48:38;;;;;;;7.50;2.10;;;18.60;99.90;;;;;;6001780;23;20023;-80
2021/08/23 07:51:04;;;;;;;5.68;2.40;;;18.70;99.70;;;;;;6025518;23;20075;-77
2021/08/23 07:53:30;;;;;;;5.72;2.30;;;18.70;99.90;;;;;;6000359;23;20023;-78
2021/08/23 07:55:56;;;;;;;5.70;2.58;;;18.70;99.90;;;;;;6025947;23;20027;-78
2021/08/23 07:58:22;;;;;;;5.50;2.78;;;18.80;99.90;;;;;;5979375;23;20015;-78
2021/08/23 08:00:51;;;;;;;5.43;1.83;;;18.90;99.30;;;;;;6024438;23;20023;-78
2021/08/23 08:03:17;;;;;;;4.90;1.80;;;18.90;99.10;;;;;;6026951;23;20024;-77
2021/08/23 08:05:43;;;;;;;3.85;1.60;;;18.90;98.90;;;;;;5997789;23;20102;-78
2021/08/23 08:08:09;;;;;;;5.45;2.35;;;19.00;97.90;;;;;;6023466;23;20027;-77
2021/08/23 08:10:39;;;;;;;4.40;1.85;;;19.00;97.40;;;;;;6022819;23;20023;-77
2021/08/23 08:13:07;;;;;;;4.30;2.05;;;19.00;97.40;;;;;;6002893;23;20027;-77
2021/08/23 08:15:35;;;;;;;4.57;1.92;;;19.20;97.30;;;;;;6024941;23;20114;-78
2021/08/23 08:18:02;;;;;;;5.75;1.75;;;19.20;97.10;;;;;;6027820;23;20030;-76
2021/08/23 08:20:28;;;;;;;4.85;1.85;;;19.30;95.40;;;;;;6022672;23;20019;-77
2021/08/23 08:22:54;;;;;;;3.38;1.88;;;19.40;95.80;;;;;;5976369;23;20023;-76
2021/08/23 08:25:20;;;;;;;5.72;1.92;;;19.40;95.90;;;;;;6001889;23;20042;-75
2021/08/23 08:27:49;;;;;;;5.40;2.10;;;19.40;96.10;;;;;;6000185;23;20436;-73
2021/08/23 08:30:17;;;;;;;6.70;1.75;;;19.40;95.70;;;;;;5975297;23;20071;-77
2021/08/23 08:32:46;;;;;;;6.22;1.88;;;19.40;96.00;;;;;;6024566;23;20030;-76
2021/08/23 08:35:12;;;;;;;5.05;1.58;;;19.60;95.70;;;;;;6026178;23;20026;-71
2021/08/23 08:37:39;;;;;;;3.97;1.58;;;19.70;94.80;;;;;;6001257;23;20460;-76
2021/08/23 08:40:08;;;;;;;5.75;1.55;;;19.70;93.60;;;;;;6022971;23;20646;-77
2021/08/23 08:42:43;;;;;;;4.03;1.45;;;19.80;93.40;;;;;;6023983;23;20019;-78
2021/08/23 08:45:10;;;;;;;6.53;2.08;;;19.70;93.50;;;;;;6002834;23;20030;-78
2021/08/23 08:47:41;;;;;;;5.50;1.95;;;19.70;93.90;;;;;;6028201;23;20098;-79
2021/08/23 08:50:08;;;;;;;4.07;1.83;;;19.80;94.60;;;;;;6024626;23;20030;-79
2021/08/23 08:52:40;;;;;;;6.53;2.05;;;19.80;94.50;;;;;;6025095;23;20015;-79
2021/08/23 08:55:08;;;;;;;5.18;1.50;;;19.90;94.90;;;;;;6003997;23;20038;-79
2021/08/23 08:57:42;;;;;;;4.97;1.70;;;20.00;95.40;;;;;;6007124;23;20035;-78
2021/08/23 09:00:09;;;;;;;6.05;2.38;;;20.20;94.30;;;;;;6003071;23;20016;-79
2021/08/23 09:02:39;;;;;;;5.80;1.80;;;20.20;94.10;;;;;;6028588;23;20338;-79
2021/08/23 09:05:16;;;;;;;3.63;1.80;;;20.30;94.50;;;;;;6002624;23;20020;-72
2021/08/23 09:07:50;;;;;;;3.47;1.60;;;20.50;94.70;;;;;;6023907;23;20023;-71
2021/08/23 09:10:26;;;;;;;6.45;1.52;;;20.70;93.10;;;;;;6004444;23;20019;-71
2021/08/23 09:13:09;;;;;;;4.75;1.70;;;20.70;92.10;;;;;;6027519;23;20026;-72
2021/08/23 09:15:57;;;;;;;5.43;1.50;;;20.70;92.80;;;;;;6003663;23;20027;-72
2021/08/23 09:18:33;;;;;;;5.50;1.70;;;20.70;92.60;;;;;;6029786;23;20015;-71
2021/08/23 09:21:07;;;;;;;4.57;1.98;;;20.70;92.30;;;;;;6026087;23;20023;-72
2021/08/23 09:23:43;;;;;;;4.53;1.38;;;20.80;93.10;;;;;;6030917;23;20397;-80
2021/08/23 09:26:41;;;;;;;4.40;1.63;;;20.90;93.60;;;;;;6051331;23;20027;-72
2021/08/23 09:29:27;;;;;;;4.90;1.83;;;21.10;91.60;;;;;;6025487;23;20532;-72
2021/08/23 09:31:59;;;;;;;4.28;1.50;;;21.10;91.60;;;;;;6049799;23;20023;-72
2021/08/23 09:34:25;;;;;;;5.00;1.80;;;21.10;91.20;;;;;;6050829;23;20034;-72
2021/08/23 09:37:19;;;;;;;4.25;1.80;;;21.10;90.60;;;;;;6027719;23;20361;-72
2021/08/23 09:39:45;;;;;;;4.32;2.05;;;21.10;90.80;;;;;;6027129;23;20012;-71
2021/08/23 09:42:15;;;;;;;4.97;1.77;;;21.20;89.40;;;;;;6049993;23;20020;-72
2021/08/23 09:44:41;;;;;;;;;;;21.20;89.30;;;;;;6024361;23;20079;-71
2021/08/23 09:47:08;;;;;;;4.57;1.90;;;21.20;88.80;;;;;;6027735;23;19973;-72
2021/08/23 09:49:37;;;;;;;3.58;1.77;;;21.20;88.50;;;;;;6026217;23;20102;-71
2021/08/23 09:52:03;;;;;;;2.85;1.45;;;21.30;81.60;;;;;;6028103;23;20026;-71
2021/08/23 09:54:30;;;;;;;4.05;1.77;;;21.20;81.10;;;;;;6028528;23;20031;-77
2021/08/23 09:56:56;;;;;;;5.22;1.70;;;21.20;82.80;;;;;;6025894;23;20317;-77
2021/08/23 09:59:23;;;;;;;3.47;1.58;;;21.30;81.70;;;;;;6054582;23;20016;-77
2021/08/23 10:01:52;;;;;;;4.88;1.70;;;21.40;80.10;;;;;;6025437;23;20452;-76
2021/08/23 10:04:19;;;;;;;5.57;1.50;;;21.40;76.50;;;;;;6032239;23;20015;-75
2021/08/23 10:06:47;;;;;;;3.10;1.50;;;21.40;75.10;;;;;;6027307;23;20046;-72
2021/08/23 10:09:25;;;;;;;3.83;1.33;;;21.30;77.30;;;;;;6027119;23;20019;-72
2021/08/23 10:12:00;;;;;;;3.40;1.20;;;21.30;78.90;;;;;;6026549;23;20163;-73
2021/08/23 10:14:27;;;;;;;3.10;1.38;;;21.20;78.90;;;;;;6055211;23;20019;-72
2021/08/23 10:16:53;;;;;;;2.72;1.42;;;21.30;82.20;;;;;;6026832;23;20053;-72
2021/08/23 10:19:21;;;;;;;3.20;1.40;;;21.30;78.40;;;;;;6027340;23;20533;-72
2021/08/23 10:21:52;;;;;;;3.47;1.42;;;21.30;77.60;;;;;;6052455;23;20025;-73
2021/08/23 10:24:27;;;;;;;4.55;1.50;;;21.30;79.50;;;;;;6054393;23;20015;-72
2021/08/23 10:26:53;;;;;;;3.15;1.40;;;21.30;82.20;;;;;;6029508;23;20098;-77
2021/08/23 10:29:20;;;;;;;3.80;1.25;;;21.40;82.60;;;;;;6027873;23;20019;-73
2021/08/23 10:31:47;;;;;;;2.45;1.25;;;21.50;82.50;;;;;;6025066;23;20047;-72
2021/08/23 10:34:18;;;;;;;3.45;1.45;;;21.70;77.30;;;;;;6028347;23;20020;-77
2021/08/23 10:36:49;;;;;;;3.15;1.15;;;21.70;76.70;;;;;;6000801;23;20452;-78
2021/08/23 10:39:24;;;;;;;5.20;1.30;;;21.70;75.10;;;;;;6030257;23;20353;-78
2021/08/23 10:41:52;;;;;;;3.92;1.20;;;21.70;73.80;;;;;;6026244;23;20042;-77
2021/08/23 10:44:30;;;;;;;3.38;1.45;;;21.60;77.10;;;;;;6032698;23;20019;-77
2021/08/23 10:47:29;;;;;;;3.28;1.00;;;21.70;80.40;;;;;;6027415;23;20359;-78
2021/08/23 10:49:55;;;;;;;4.63;1.15;;;21.90;75.80;;;;;;6047515;23;20023;-77
2021/08/23 10:52:33;;;;;;;2.80;1.30;;;21.90;74.90;;;;;;6031708;23;20019;-77
2021/08/23 10:54:59;;;;;;;6.20;1.10;;;21.90;73.10;;;;;;6003643;23;20023;-77
2021/08/23 10:57:30;;;;;;;3.00;1.15;;;22.00;71.70;;;;;;6033318;23;20279;-76
2021/08/23 11:00:19;;;;;;;4.18;1.40;;;22.00;66.80;;;;;;6027903;23;20019;-76
2021/08/23 11:02:45;;;;;;;5.75;1.30;;;21.90;71.00;;;;;;6026633;23;20091;-76
2021/08/23 11:05:20;;;;;;;3.03;1.48;;;21.90;74.00;;;;;;6028486;23;20020;-74
2021/08/23 11:07:47;;;;;;;3.65;1.50;;;22.00;75.10;;;;;;6026327;23;20047;-73
2021/08/23 11:10:23;;;;;;;3.67;1.40;;;22.10;75.90;;;;;;6029841;23;20091;-72
2021/08/23 11:12:55;;;;;;;4.40;1.38;;;22.20;69.70;;;;;;6025718;23;20024;-72
2021/08/23 11:15:23;;;;;;;5.63;1.40;;;22.10;64.10;;;;;;6029518;23;20029;-73
2021/08/23 11:17:51;;;;;;;3.90;1.30;;;22.20;67.10;;;;;;6029333;23;20023;-72
2021/08/23 11:20:23;;;;;;;4.07;1.55;;;22.30;71.80;;;;;;6027855;23;20023;-72
2021/08/23 11:23:02;;;;;;;2.45;1.30;;;22.30;67.40;;;;;;6002277;23;20426;-72
2021/08/23 11:25:59;;;;;;;4.25;1.38;;;22.40;64.90;;;;;;6031413;23;20071;-72
2021/08/23 11:28:27;;;;;;;4.25;1.50;;;22.30;64.30;;;;;;6015810;23;20020;-72
2021/08/23 11:31:02;;;;;;;3.53;1.50;;;22.40;65.70;;;;;;6002847;23;20114;-73
2021/08/23 11:33:31;;;;;;;3.42;1.88;;;22.50;70.10;;;;;;6031697;23;20019;-73
2021/08/23 11:36:24;;;;;;;2.80;1.50;;;22.60;72.20;;;;;;6029378;23;20019;-73
2021/08/23 11:38:50;;;;;;;2.45;1.42;;;22.70;69.90;;;;;;6000949;23;20027;-72
2021/08/23 11:41:17;;;;;;;1.83;1.02;;;22.80;65.90;;;;;;6003455;23;20015;-73
2021/08/23 11:43:44;;;;;;;3.60;1.25;;;22.90;66.50;;;;;;6027566;23;20349;-72
2021/08/23 11:46:12;;;;;;;2.20;1.17;;;23.00;65.50;;;;;;6028270;23;20019;-77
2021/08/23 11:48:38;;;;;;;2.53;1.02;;;23.00;55.70;;;;;;6003604;23;20023;-76
2021/08/23 11:51:04;;;;;;;4.03;1.38;;;23.00;57.70;;;;;;6026774;23;20019;-77
2021/08/23 11:53:31;;;;;;;2.95;1.35;;;22.90;57.20;;;;;;6025882;23;20397;-78
2021/08/23 11:56:07;;;;;;;3.88;1.00;;;23.00;59.90;;;;;;6025260;23;20086;-78
2021/08/23 11:58:39;;;;;;;3.90;0.98;;;23.00;57.80;;;;;;6029149;23;20035;-78
2021/08/23 12:01:11;;;;;;;3.08;1.10;;;23.00;57.20;;;;;;6025103;23;20102;-77
2021/08/23 12:03:38;;;;;;;3.85;1.40;;;22.90;59.00;;;;;;6028456;23;20344;-77
2021/08/23 12:06:10;;;;;;;4.10;1.30;;;22.90;56.90;;;;;;6001799;23;20456;-77
2021/08/23 12:08:38;;;;;;;2.50;0.90;;;22.90;60.10;;;;;;6028072;23;20019;-79
2021/08/23 12:11:17;;;;;;;2.65;1.10;;;23.00;61.70;;;;;;6001477;23;20024;-77
2021/08/23 12:13:48;;;;;;;3.15;1.40;;;22.90;57.30;;;;;;6004670;23;20027;-77
2021/08/23 12:16:31;;;;;;;3.40;1.40;;;22.90;61.80;;;;;;6002702;23;20630;-77
2021/08/23 12:19:06;;;;;;;2.85;1.30;;;23.00;59.90;;;;;;6029262;23;20082;-76
2021/08/23 12:21:33;;;;;;;2.75;1.00;;;23.10;62.90;;;;;;6027791;23;20031;-79
2021/08/23 12:23:59;;;;;;;2.95;0.93;;;23.20;60.60;;;;;;6025869;23;20102;-77
2021/08/23 12:26:48;;;;;;;2.88;1.55;;;23.10;62.30;;;;;;6007186;23;20039;-77
2021/08/23 12:29:20;;;;;;;2.85;1.42;;;23.10;63.10;;;;;;6003738;23;20030;-79
2021/08/23 12:31:50;;;;;;;3.20;1.40;;;23.00;64.10;;;;;;6033258;23;20051;-79
2021/08/23 12:34:28;;;;;;;2.25;1.20;;;23.10;66.90;;;;;;6026885;23;20365;-78
2021/08/23 12:36:59;;;;;;;4.22;1.30;;;23.10;66.00;;;;;;6028755;23;20483;-77
2021/08/23 12:39:29;;;;;;;2.38;1.38;;;23.10;71.60;;;;;;6029340;23;20026;-73
2021/08/23 12:41:58;;;;;;;3.58;1.55;;;23.30;68.30;;;;;;6003366;23;20031;-71
2021/08/23 12:44:25;;;;;;;4.75;1.30;;;23.30;68.50;;;;;;6004131;23;20098;-72
2021/08/23 12:46:51;;;;;;;4.03;1.70;;;23.10;67.60;;;;;;6004234;23;20019;-72
2021/08/23 12:49:18;;;;;;;1.90;1.25;;;22.90;71.10;;;;;;5978551;23;20475;-78